Grafton, WI (53024)

11:55 PM CST on December 28, 2014 (GMT -0600)
Lions Den Gorge | Change Station
CLOSE
Current Station
Personal Weather Station
Location: Grafton, WI
Elevation: 709 ft
Nearby Weather Stations

Elev 709 ft 43.34 °N, 87.90 °W | Updated 11 seconds ago

Overcast
Overcast
26.6 °F
Feels Like 21 °F
N
5.0
Wind Variable Wind from NNE
Gusts 10.0 mph

Today
High -- | Low -- °F
--% Chance of Precip.
Yesterday
High -- | Low -- °F
Precip. -- in
7:23 AM 4:23 PM
First Quarter, 55% visible
Pressure 30.26 in
Visibility 10.0 miles
Clouds Mostly Cloudy 1800 ft
Overcast 3800 ft
Windchill 21 °F
Dew Point 22 °F
Humidity 83%
Rainfall 0.00 in
Snow Depth Not available.
UV 0 out of 12
Pollen .10 out of 12
Air Quality Not available.
Flu Activity Not available.
METAR KETB 290530Z AUTO 33004KT 10SM BKN018 OVC038 M03/M07 A3026 RMK AO2

More Conditions Fewer Conditions

Pressure 30.26 in
Visibility 10.0 miles
Clouds Mostly Cloudy 1800 ft
Overcast 3800 ft
Windchill 21 °F
Dew Point 22 °F
Humidity 83%
Rainfall 0.00 in
Snow Depth Not available.
UV 0 out of 12
Pollen .10 out of 12
Air Quality Not available.
Flu Activity Not available.
METAR KETB 290530Z AUTO 33004KT 10SM BKN018 OVC038 M03/M07 A3026 RMK AO2

More Conditions Fewer Conditions

10-Day Weather Forecast

Almanac

Astronomy

Dec. 28, 2014 Rise Set
Actual Time
Civil Twilight
Nautical Twilight
Astronomical Twilight
Moon
Length of Visible Light
Length of Day
Tomorrow will be .
, % of the Moon is Illuminated

Today's Extremes

State Highs State Lows

Community

WunderPhotos

Upload Photos

1,781,542 photos uploaded!

WunderBlogs® & News

Nearby

Air Quality

  Air Quality AQ Index Pollutant
Not available.

Snow Depth

Station Depth Elevation

Earthquake Activity

City Distance Mag. Time & Date
Minimum magnitude displayed is 2.5.

Coastal Water Temperatures

Place Temperature

Nearby Weather Stations